Flight Track Log - Related Links

Times and Time Zones

All times are in EDT time to prevent confusion due to time zone crossing. See the ASQ4283 flight status page for this flight to view local times or setup timezone preferences in your user account.

Time Position Orientation Groundspeed Altitude Reporting Facility
EDT Latitude Longitude Course Direction KTS MPH feet Rate Location/Type
Sun 09:16:00 PM 36.1000 -87.0681 270° West  Level FlightAware Approximate
Sun 09:17:00 PM 36.0889 -87.2001 248° West  Level FlightAware Approximate
Sun 09:18:00 PM 36.0667 -87.3312 270° West  Level FlightAware Approximate
Sun 09:19:00 PM 36.0431 -87.4614 253° West  Level FlightAware Approximate
Sun 09:20:00 PM 36.0109 -87.5899 253° West  Level FlightAware Approximate
Sun 09:21:00 PM 35.9920 -87.7211 255° West  Level FlightAware Approximate
Sun 09:22:00 PM 35.9641 -87.8510 255° West  Level FlightAware Approximate
Sun 09:23:00 PM 35.9371 -87.9812 256° West  Level FlightAware Approximate
Sun 09:24:00 PM 35.9110 -88.1116 256° West  Level FlightAware Approximate
Sun 09:25:00 PM 35.8849 -88.2420 256° West  Level FlightAware Approximate
Sun 09:26:00 PM 35.8276 -88.3505 248° West  Level FlightAware Approximate
Sun 09:27:00 PM 35.7735 -88.4664 237° Southwest  Level FlightAware Approximate
Sun 09:28:00 PM 35.7138 -88.5785 237° Southwest  Level FlightAware Approximate
Sun 09:29:00 PM 35.6565 -88.6921 244° Southwest  Level FlightAware Approximate
Sun 09:30:00 PM 35.6039 -88.8091 238° Southwest  Level FlightAware Approximate
Sun 09:31:00 PM 35.5468 -88.9230 239° Southwest  Level FlightAware Approximate
Sun 09:32:00 PM 35.4900 -89.0370 239° Southwest  Level FlightAware Approximate
Sun 09:33:00 PM 35.4331 -89.1508 238° Southwest  Level FlightAware Approximate
Sun 09:34:00 PM 35.3738 -89.2626 235° Southwest  Level FlightAware Approximate
Sun 09:35:00 PM 35.3155 -89.3750 242° Southwest  Level FlightAware Approximate
Sun 09:36:00 PM 35.2613 -89.4904 236° Southwest  Level FlightAware Approximate
Sun 09:37:00 PM 35.2009 -89.6011 236° Southwest  Level FlightAware Approximate
Sun 09:38:00 PM 35.1403 -89.7117 236° Southwest  Level FlightAware Approximate
Sun 09:39:00 PM 35.0797 -89.8221 236° Southwest  Level FlightAware Approximate
Sun 09:40:00 PM 35.0189 -89.9324 236° Southwest  Level FlightAware Approximate
Sun 09:41:00 PM 34.9881 -90.0570 261° West  Level FlightAware Approximate
Sun 09:42:00 PM 34.9706 -90.1880 261° West  Level FlightAware Approximate
Sun 09:43:00 PM 34.9531 -90.3190 261° West  Level FlightAware Approximate
Sun 09:44:00 PM 34.9354 -90.4500 261° West  Level FlightAware Approximate
Sun 09:45:00 PM 34.9175 -90.5809 261° West  Level FlightAware Approximate
Sun 09:46:00 PM 34.8995 -90.7117 261° West  Level FlightAware Approximate
Sun 09:47:00 PM 34.8814 -90.8425 260° West  Level FlightAware Approximate
Sun 09:48:00 PM 34.8631 -90.9733 260° West  Level FlightAware Approximate
Sun 09:49:00 PM 34.8438 -91.1037 259° West  Level FlightAware Approximate
Sun 09:50:00 PM 34.8224 -91.2337 259° West  Level FlightAware Approximate
Sun 09:51:00 PM 34.8012 -91.3636 259° West  Level FlightAware Approximate
Sun 09:52:00 PM 34.7798 -91.4935 259° West  Level FlightAware Approximate
Sun 09:53:00 PM 34.7583 -91.6234 259° West  Level FlightAware Approximate
Sun 09:54:00 PM 34.7367 -91.7531 259° West  Level FlightAware Approximate
Sun 09:55:00 PM 34.7149 -91.8828 258° West  Level FlightAware Approximate
Sun 09:56:00 PM 34.6930 -92.0124 258° West  Level FlightAware Approximate
Sun 09:57:00 PM 34.6709 -92.1420 258° West  Level FlightAware Approximate
Sun 09:58:00 PM 34.5804 -92.1883 192° South  Level FlightAware Approximate
Sun 09:59:00 PM 34.4738 -92.2149 192° South  Level FlightAware Approximate
Sun 10:00:00 PM 34.3662 -92.2344 188° South  Level FlightAware Approximate
Sun 10:01:00 PM 34.2586 -92.2534 188° South  Level FlightAware Approximate
Sun 10:02:00 PM 34.1510 -92.2730 189° South  Level FlightAware Approximate
Sun 10:03:00 PM 34.0436 -92.2940 189° South  Level FlightAware Approximate
Sun 10:04:00 PM 33.9362 -92.3149 189° South  Level FlightAware Approximate
Sun 10:05:00 PM 33.8288 -92.3358 189° South  Level FlightAware Approximate
Sun 10:06:00 PM 33.7214 -92.3566 189° South  Level FlightAware Approximate
Sun 10:07:00 PM 33.6140 -92.3774 189° South  Level FlightAware Approximate
Sun 10:08:00 PM 33.5063 -92.3962 188° South  Level FlightAware Approximate
Sun 10:09:00 PM 33.3985 -92.4141 188° South  Level FlightAware Approximate
Sun 10:10:00 PM 33.2908 -92.4322 188° South  Level FlightAware Approximate
Sun 10:11:00 PM 33.1830 -92.4502 188° South  Level FlightAware Approximate
Sun 10:12:00 PM 33.0753 -92.4682 188° South  Level FlightAware Approximate
Sun 10:13:00 PM 32.9675 -92.4862 188° South  Level FlightAware Approximate
Sun 10:14:00 PM 32.8598 -92.5041 188° South  Level FlightAware Approximate
Sun 10:15:00 PM 32.7520 -92.5220 188° South  Level FlightAware Approximate
Sun 10:16:00 PM 32.6444 -92.5405 189° South  Level FlightAware Approximate
Sun 10:17:00 PM 32.5368 -92.5601 189° South  Level FlightAware Approximate
Sun 10:18:00 PM 32.4293 -92.5797 189° South  Level FlightAware Approximate
Sun 10:19:00 PM 32.3218 -92.5992 189° South  Level FlightAware Approximate
Sun 10:20:00 PM 32.2142 -92.6187 189° South  Level FlightAware Approximate
Sun 10:21:00 PM 32.1067 -92.6387 190° South  Level FlightAware Approximate
Sun 10:22:00 PM 31.9995 -92.6601 190° South  Level FlightAware Approximate
Sun 10:23:00 PM 31.9086 -92.7235 220° Southwest  Level FlightAware Approximate
Sun 10:24:00 PM 31.8248 -92.8052 220° Southwest  Level FlightAware Approximate
Sun 10:25:00 PM 31.7410 -92.8868 220° Southwest  Level FlightAware Approximate
Sun 10:26:00 PM 31.6571 -92.9683 220° Southwest  Level FlightAware Approximate
Sun 10:27:00 PM 31.5732 -93.0496 220° Southwest  Level FlightAware Approximate
Sun 10:28:00 PM 31.4892 -93.1307 219° Southwest  Level FlightAware Approximate
Sun 10:29:00 PM 31.4051 -93.2117 219° Southwest  Level FlightAware Approximate
Sun 10:30:00 PM 31.3218 -93.2937 218° Southwest  Level FlightAware Approximate
Sun 10:31:00 PM 31.2355 -93.3711 218° Southwest  Level FlightAware Approximate
Sun 10:32:00 PM 31.1491 -93.4484 217° Southwest  Level FlightAware Approximate
Sun 10:33:00 PM 31.0627 -93.5256 217° Southwest  Level FlightAware Approximate
Sun 10:34:00 PM 30.9832 -93.6113 229° Southwest  Level FlightAware Approximate
Sun 10:35:00 PM 30.8986 -93.6901 216° Southwest  Level FlightAware Approximate
Sun 10:36:00 PM 30.8139 -93.7695 221° Southwest  Level FlightAware Approximate
Sun 10:37:00 PM 30.7313 -93.8520 221° Southwest  Level FlightAware Approximate
Sun 10:38:00 PM 30.6482 -93.9336 218° Southwest  Level FlightAware Approximate
Sun 10:39:00 PM 30.5628 -94.0120 218° Southwest  Level FlightAware Approximate
Sun 10:40:00 PM 30.4774 -94.0902 218° Southwest  Level FlightAware Approximate
Sun 10:41:00 PM 30.3912 -94.1672 218° Southwest  Level FlightAware Approximate
Sun 10:42:00 PM 30.3048 -94.2437 217° Southwest  Level FlightAware Approximate
Sun 10:43:00 PM 30.2180 -94.3197 217° Southwest  Level FlightAware Approximate
Sun 10:44:00 PM 30.1719 -94.4241 257° West  Level FlightAware Approximate
Sun 10:45:00 PM 30.1493 -94.5404 263° West  Level FlightAware Approximate
Sun 10:46:00 PM 30.1368 -94.6654 263° West  Level FlightAware Approximate
Sun 10:47:00 PM 30.1185 -94.7893 259° West  Level FlightAware Approximate
Sun 10:48:00 PM 30.1000 -94.9130 270° West  Level FlightAware Approximate
Sun 10:49:00 PM 30.1000 -95.0388 270° West  Level FlightAware Approximate
Sun 10:50:00 PM 30.1000 -95.1645 270° West  Level FlightAware Approximate
Sun 10:51:00 PM 30.0823 -95.2785 210° Southwest  Level FlightAware Approximate

Login

Don't have an account? Register now (free) for customized features, flight alerts, and more!